Time;durP1;ratioP1;P1;durP2;ratioP2;P2;SDS_P1;SDS_P2;PMS_P1;PMS_P2;Temp;Humidity;BMP_temperature;BMP_pressure;BME280_temperature;BME280_humidity;BME280_pressure;Samples;Min_cycle;Max_cycle;Signal;HPM_P1;HPM_P2
2022/10/10 00:01:36;;;;;;;;;19.00;17.00;;;;;15.15;57.93;100576.91;5043600;28;45411;-59
2022/10/10 00:04:02;;;;;;;;;14.33;14.33;;;;;15.17;57.72;100582.13;5042083;28;45463;-59
2022/10/10 00:06:29;;;;;;;;;19.33;17.33;;;;;15.14;57.43;100592.88;5056829;28;45585;-59
2022/10/10 00:08:54;;;;;;;;;16.33;16.33;;;;;15.13;57.76;100596.50;5052742;28;45451;-60
2022/10/10 00:11:22;;;;;;;;;18.33;18.33;;;;;15.13;58.00;100589.38;5049327;28;45395;-60
2022/10/10 00:13:48;;;;;;;;;18.67;18.33;;;;;15.13;57.56;100592.03;5051720;28;45408;-59
2022/10/10 00:16:14;;;;;;;;;21.00;19.33;;;;;15.11;57.73;100588.59;5054373;28;45653;-59
2022/10/10 00:18:41;;;;;;;;;18.33;17.33;;;;;15.10;57.96;100588.69;5054676;28;46305;-59
2022/10/10 00:21:07;;;;;;;;;18.00;17.33;;;;;15.05;58.69;100583.66;5047475;28;45560;-59
2022/10/10 00:23:33;;;;;;;;;17.00;15.33;;;;;15.05;58.66;100582.81;5049637;28;45601;-59
2022/10/10 00:25:59;;;;;;;;;16.67;16.33;;;;;15.02;58.35;100579.38;5057029;28;45557;-60
2022/10/10 00:28:24;;;;;;;;;13.67;12.33;;;;;15.03;58.35;100585.53;5055495;28;45410;-59
2022/10/10 00:30:49;;;;;;;;;17.00;15.67;;;;;15.03;57.97;100583.72;5054505;28;45492;-60
2022/10/10 00:33:15;;;;;;;;;16.00;15.33;;;;;15.04;57.97;100581.91;5047784;28;45360;-60
2022/10/10 00:35:40;;;;;;;;;18.67;16.33;;;;;15.01;58.48;100576.78;5056339;28;45402;-59
2022/10/10 00:38:06;;;;;;;;;14.00;14.00;;;;;15.01;58.30;100576.78;5054578;28;45559;-59
2022/10/10 00:40:32;;;;;;;;;16.00;15.33;;;;;15.00;58.56;100583.03;5055953;28;45517;-59
2022/10/10 00:42:59;;;;;;;;;17.00;15.67;;;;;15.00;58.40;100577.75;5057889;28;45399;-59
2022/10/10 00:45:27;;;;;;;;;17.33;16.67;;;;;15.00;58.19;100585.69;5053504;28;45472;-59
2022/10/10 00:47:59;;;;;;;;;15.33;15.33;;;;;15.00;58.75;100581.25;5056786;28;46380;-59
2022/10/10 00:50:25;;;;;;;;;16.67;16.67;;;;;15.02;58.05;100578.53;5048354;28;45573;-59
2022/10/10 00:52:52;;;;;;;;;15.00;14.00;;;;;14.98;58.23;100580.47;5045748;28;45535;-59
2022/10/10 00:55:17;;;;;;;;;16.00;15.00;;;;;14.98;58.59;100571.66;5047685;28;45633;-60
2022/10/10 00:57:43;;;;;;;;;17.33;17.00;;;;;14.97;58.88;100572.63;5057995;28;46293;-59
2022/10/10 01:00:09;;;;;;;;;19.33;17.00;;;;;14.96;58.04;100570.88;5053832;28;45426;-59
2022/10/10 01:02:34;;;;;;;;;21.33;17.33;;;;;14.98;58.49;100577.81;5045894;28;45466;-59
2022/10/10 01:05:00;;;;;;;;;19.00;18.00;;;;;14.98;58.77;100571.66;5061280;28;45560;-60
2022/10/10 01:07:28;;;;;;;;;18.67;17.00;;;;;14.96;59.06;100573.53;5056583;28;45363;-60
2022/10/10 01:09:57;;;;;;;;;18.00;17.00;;;;;14.95;58.79;100574.50;5053986;28;45411;-59
2022/10/10 01:12:34;;;;;;;;;14.33;13.33;;;;;14.91;58.01;100570.28;5049023;28;45540;-60
2022/10/10 01:15:19;;;;;;;;;18.33;17.00;;;;;14.88;59.13;100568.66;5059767;28;45483;-60
2022/10/10 01:18:06;;;;;;;;;18.67;18.33;;;;;14.87;59.37;100568.75;5059935;28;46261;-64
2022/10/10 01:20:42;;;;;;;;;17.00;17.00;;;;;14.87;58.58;100563.44;5035620;28;45427;-59
2022/10/10 01:23:42;;;;;;;;;15.67;15.67;;;;;14.84;59.29;100564.47;5031843;28;45450;-59
2022/10/10 01:26:16;;;;;;;;;18.00;17.67;;;;;14.81;59.21;100564.63;5043811;28;45526;-59
2022/10/10 01:29:00;;;;;;;;;17.33;17.33;;;;;14.77;58.73;100558.63;5042562;28;45399;-59
2022/10/10 01:31:28;;;;;;;;;17.67;17.67;;;;;14.76;58.65;100562.22;5037470;28;45368;-59
2022/10/10 01:34:13;;;;;;;;;18.33;16.33;;;;;14.73;58.79;100558.91;5035608;28;45476;-59
2022/10/10 01:36:55;;;;;;;;;19.00;18.00;;;;;14.74;58.65;100566.75;5035684;28;45414;-60
2022/10/10 01:39:56;;;;;;;;;16.67;16.67;;;;;14.70;59.99;100561.72;5044591;28;45403;-59
2022/10/10 01:42:26;;;;;;;;;23.00;21.67;;;;;14.72;59.50;100560.69;5016376;28;46008;-59
2022/10/10 01:44:52;;;;;;;;;18.33;16.33;;;;;14.72;59.55;100559.81;5054736;28;45447;-59
2022/10/10 01:47:20;;;;;;;;;16.00;16.00;;;;;14.69;59.16;100555.53;5035013;28;45484;-59
2022/10/10 01:49:50;;;;;;;;;18.67;16.67;;;;;14.67;59.31;100560.09;5035185;28;45521;-59
2022/10/10 01:52:21;;;;;;;;;17.00;17.00;;;;;14.66;59.76;100553.06;5035452;28;45476;-59
2022/10/10 01:54:58;;;;;;;;;18.67;18.67;;;;;14.63;59.58;100550.56;5034703;28;45410;-59
2022/10/10 01:57:59;;;;;;;;;14.00;14.00;;;;;14.67;59.36;100557.44;5034780;28;45469;-59
2022/10/10 02:00:24;;;;;;;;;18.67;18.67;;;;;14.70;60.05;100559.91;5016786;28;48074;-59
2022/10/10 02:03:00;;;;;;;;;18.33;16.33;;;;;14.70;59.35;100557.28;5033862;28;45518;-59
2022/10/10 02:05:31;;;;;;;;;18.33;18.00;;;;;14.67;59.70;100551.25;5035624;28;45474;-59
2022/10/10 02:08:05;;;;;;;;;18.00;16.67;;;;;14.65;59.78;100553.16;5034825;28;45400;-59
2022/10/10 02:10:36;;;;;;;;;18.00;18.00;;;;;14.61;59.44;100549.78;5028076;28;45379;-59
2022/10/10 02:13:04;;;;;;;;;18.33;17.33;;;;;14.61;59.47;100548.94;5016977;28;45541;-59
2022/10/10 02:15:37;;;;;;;;;19.33;19.33;;;;;14.61;59.52;100552.44;5038242;28;45288;-59
2022/10/10 02:18:07;;;;;;;;;19.33;17.00;;;;;14.60;59.91;100557.84;5034200;28;45674;-59
2022/10/10 02:20:32;;;;;;;;;14.67;14.67;;;;;14.54;60.31;100551.06;5038665;28;45348;-59
2022/10/10 02:22:58;;;;;;;;;17.33;17.33;;;;;14.56;59.87;100554.47;5037195;28;45599;-59
2022/10/10 02:25:28;;;;;;;;;15.33;13.67;;;;;14.57;60.22;100559.69;5038429;28;45463;-59
2022/10/10 02:28:07;;;;;;;;;18.00;18.00;;;;;14.54;60.11;100556.38;5041745;28;45387;-59
2022/10/10 02:30:36;;;;;;;;;18.33;18.00;;;;;14.56;60.06;100557.13;5044755;28;45490;-59
2022/10/10 02:33:05;;;;;;;;;21.00;18.00;;;;;14.55;59.88;100547.47;5038486;28;45596;-59
2022/10/10 02:35:36;;;;;;;;;19.33;18.33;;;;;14.55;59.69;100558.06;5039302;28;45807;-59
2022/10/10 02:38:05;;;;;;;;;19.00;18.33;;;;;14.53;60.36;100552.00;5037575;28;45519;-59
2022/10/10 02:40:32;;;;;;;;;15.00;15.00;;;;;14.54;59.73;100551.06;5040620;28;45472;-60
2022/10/10 02:43:01;;;;;;;;;21.33;20.00;;;;;14.45;60.11;100535.63;5035593;28;45404;-60
2022/10/10 02:45:31;;;;;;;;;19.33;18.00;;;;;14.47;60.37;100552.28;5037960;28;45395;-59
2022/10/10 02:47:58;;;;;;;;;17.67;17.33;;;;;14.47;60.18;100553.16;5034687;28;45561;-59
2022/10/10 02:50:23;;;;;;;;;22.00;20.00;;;;;14.46;60.31;100550.59;5029720;28;46231;-59
2022/10/10 02:52:48;;;;;;;;;18.00;18.00;;;;;14.47;60.67;100554.94;5037579;28;45427;-59
2022/10/10 02:55:14;;;;;;;;;20.00;20.00;;;;;14.48;60.37;100552.22;5048683;28;45640;-60
2022/10/10 02:57:39;;;;;;;;;19.33;19.00;;;;;14.46;60.06;100551.44;5050468;28;45501;-59
2022/10/10 03:00:05;;;;;;;;;19.00;19.00;;;;;14.43;59.92;100562.19;5039232;28;45394;-59
2022/10/10 03:02:31;;;;;;;;;19.67;19.67;;;;;14.39;60.13;100557.97;5037430;28;45463;-59
2022/10/10 03:04:57;;;;;;;;;20.00;20.00;;;;;14.39;60.74;100559.78;5055146;28;45606;-59
2022/10/10 03:07:23;;;;;;;;;19.33;19.33;;;;;14.30;60.70;100537.31;5037111;28;45518;-59
2022/10/10 03:09:48;;;;;;;;;21.67;20.67;;;;;14.36;60.69;100559.00;5036928;28;46285;-60
2022/10/10 03:12:13;;;;;;;;;17.00;17.00;;;;;14.38;61.06;100558.06;5042475;28;45436;-59
2022/10/10 03:14:39;;;;;;;;;19.67;19.67;;;;;14.35;60.85;100554.66;5027835;28;45358;-59
2022/10/10 03:17:04;;;;;;;;;17.67;17.00;;;;;14.35;60.61;100562.59;5046271;28;45439;-60
2022/10/10 03:19:29;;;;;;;;;19.67;19.33;;;;;14.34;60.66;100555.56;5035648;28;45547;-59
2022/10/10 03:21:55;;;;;;;;;18.67;16.67;;;;;14.34;61.04;100550.28;5041773;28;45560;-59
2022/10/10 03:24:20;;;;;;;;;19.00;18.00;;;;;14.32;60.24;100546.88;5061342;28;45327;-59
2022/10/10 03:26:45;;;;;;;;;19.00;18.33;;;;;14.32;60.74;100551.31;5073357;28;45366;-60
2022/10/10 03:29:11;;;;;;;;;16.00;16.00;;;;;14.35;60.61;100546.72;5052302;28;45387;-59
2022/10/10 03:31:36;;;;;;;;;15.67;15.67;;;;;14.32;60.96;100541.59;5057580;28;46095;-59
2022/10/10 03:34:02;;;;;;;;;14.33;14.00;;;;;14.32;61.50;100546.88;5053132;28;45477;-59
2022/10/10 03:36:27;;;;;;;;;17.67;16.33;;;;;14.32;61.31;100551.31;5040852;28;46291;-59
2022/10/10 03:38:52;;;;;;;;;14.00;14.00;;;;;14.33;60.68;100547.72;5057542;28;45992;-60
2022/10/10 03:41:18;;;;;;;;;17.67;17.67;;;;;14.33;61.09;100556.50;5058033;28;45459;-59
2022/10/10 03:43:43;;;;;;;;;14.33;14.33;;;;;14.33;61.43;100551.22;5057221;28;45540;-59
2022/10/10 03:46:08;;;;;;;;;18.33;16.67;;;;;14.34;61.07;100550.28;5046720;28;45506;-60
2022/10/10 03:48:34;;;;;;;;;20.33;19.67;;;;;14.34;61.36;100550.28;5037260;28;45914;-59
2022/10/10 03:50:59;;;;;;;;;17.00;17.00;;;;;14.35;61.00;100545.88;5037755;28;45417;-59
2022/10/10 03:53:24;;;;;;;;;18.33;17.33;;;;;14.33;61.04;100550.38;5054019;28;45554;-59
2022/10/10 03:55:52;;;;;;;;;19.00;18.00;;;;;14.29;61.00;100557.63;5055693;28;45386;-59
2022/10/10 03:58:17;;;;;;;;;19.00;16.33;;;;;14.30;61.10;100554.03;5053689;28;45454;-59
2022/10/10 04:00:42;;;;;;;;;16.00;14.33;;;;;14.27;61.17;100554.19;5053629;28;48265;-60
2022/10/10 04:03:08;;;;;;;;;17.00;17.00;;;;;14.28;61.01;100549.75;5053887;28;45409;-59
2022/10/10 04:05:37;;;;;;;;;15.00;15.00;;;;;14.26;61.46;100552.47;5050742;28;45672;-59
2022/10/10 04:08:04;;;;;;;;;12.67;12.67;;;;;14.28;61.58;100555.03;5056656;28;46159;-59
2022/10/10 04:10:29;;;;;;;;;17.00;16.00;;;;;14.27;61.61;100553.34;5048189;28;45458;-60
2022/10/10 04:12:55;;;;;;;;;16.00;16.00;;;;;14.22;61.96;100545.63;5034945;28;45631;-60
2022/10/10 04:15:20;;;;;;;;;18.00;17.00;;;;;14.22;61.85;100545.63;5045115;28;45571;-59
2022/10/10 04:17:45;;;;;;;;;17.67;16.33;;;;;14.23;61.50;100547.31;5054301;28;47367;-59
2022/10/10 04:20:11;;;;;;;;;14.67;14.00;;;;;14.23;61.92;100543.84;5060914;28;46032;-60
2022/10/10 04:22:36;;;;;;;;;14.67;14.00;;;;;14.20;61.69;100544.84;5050046;28;45485;-59
2022/10/10 04:25:02;;;;;;;;;14.67;14.00;;;;;14.17;62.08;100537.06;5054811;28;45411;-60
2022/10/10 04:27:27;;;;;;;;;18.00;16.00;;;;;14.17;61.73;100544.16;5056154;28;45427;-59
2022/10/10 04:29:53;;;;;;;;;14.67;14.67;;;;;14.15;62.29;100546.88;5044489;28;45533;-59
2022/10/10 04:32:18;;;;;;;;;13.67;13.33;;;;;14.15;62.45;100544.22;5057270;28;45450;-59
2022/10/10 04:34:43;;;;;;;;;17.00;17.00;;;;;14.13;62.54;100536.38;5054175;28;45378;-60
2022/10/10 04:37:08;;;;;;;;;14.67;14.67;;;;;14.14;62.84;100545.16;5055339;28;45406;-60
2022/10/10 04:39:34;;;;;;;;;15.33;15.00;;;;;14.13;62.59;100548.72;5049254;28;45420;-60
2022/10/10 04:41:59;;;;;;;;;17.00;16.00;;;;;14.10;63.17;100538.31;5052493;28;49452;-60
2022/10/10 04:44:24;;;;;;;;;15.67;14.67;;;;;14.07;63.36;100543.75;5068841;28;45470;-60
2022/10/10 04:46:50;;;;;;;;;17.67;14.00;;;;;14.06;63.10;100534.13;5059329;28;46175;-60
2022/10/10 04:49:15;;;;;;;;;14.00;14.00;;;;;14.06;62.85;100542.91;5056007;28;45427;-60
2022/10/10 04:51:40;;;;;;;;;16.00;16.00;;;;;14.08;62.94;100548.13;5056887;28;45458;-60
2022/10/10 04:54:06;;;;;;;;;13.67;13.67;;;;;14.11;62.56;100537.41;5052924;28;45427;-60
2022/10/10 04:56:31;;;;;;;;;14.67;14.67;;;;;14.10;62.74;100543.59;5055322;28;50641;-60
2022/10/10 04:58:56;;;;;;;;;14.00;14.00;;;;;14.04;63.33;100520.97;5034328;28;45692;-60
2022/10/10 05:01:22;;;;;;;;;14.33;14.33;;;;;14.03;63.02;100526.34;5053566;28;45476;-60
2022/10/10 05:03:47;;;;;;;;;14.67;13.00;;;;;14.03;62.96;100526.34;5053133;28;45357;-60
2022/10/10 05:06:12;;;;;;;;;20.33;17.00;;;;;14.03;63.57;100544.88;5054555;28;55102;-60
2022/10/10 05:08:38;;;;;;;;;13.33;13.00;;;;;14.04;63.18;100535.97;5053520;28;45430;-60
2022/10/10 05:11:03;;;;;;;;;14.00;14.00;;;;;14.02;63.31;100535.19;5054037;28;45724;-60
2022/10/10 05:13:28;;;;;;;;;17.00;16.00;;;;;14.03;63.71;100539.56;5054172;28;45602;-60
2022/10/10 05:15:54;;;;;;;;;14.00;14.00;;;;;14.01;63.71;100537.00;5050779;28;46251;-60
2022/10/10 05:18:20;;;;;;;;;12.00;12.00;;;;;14.01;63.36;100534.34;5050630;28;45518;-59
2022/10/10 05:20:48;;;;;;;;;13.67;13.67;;;;;14.02;63.88;100543.97;5047347;28;45454;-60
2022/10/10 05:23:14;;;;;;;;;13.33;13.33;;;;;14.02;64.04;100545.78;5037485;28;45452;-59
2022/10/10 05:25:43;;;;;;;;;14.67;14.33;;;;;14.01;63.47;100541.44;5033767;28;45503;-60
2022/10/10 05:28:09;;;;;;;;;16.33;15.00;;;;;14.01;63.62;100537.00;5032694;28;45539;-60
2022/10/10 05:30:34;;;;;;;;;14.00;14.00;;;;;14.00;63.99;100539.72;5035709;28;45455;-60
2022/10/10 05:32:59;;;;;;;;;14.33;14.33;;;;;14.01;63.80;100537.00;5035581;28;45400;-60
2022/10/10 05:35:25;;;;;;;;;16.00;16.00;;;;;14.03;63.83;100534.28;5034747;28;55870;-60
2022/10/10 05:37:50;;;;;;;;;17.33;17.00;;;;;14.02;63.61;100540.50;5040282;28;45451;-62
2022/10/10 05:40:15;;;;;;;;;16.00;15.67;;;;;14.03;63.43;100539.56;5046134;28;45455;-60
2022/10/10 05:42:41;;;;;;;;;15.33;14.33;;;;;14.02;63.22;100538.69;5037554;28;45431;-60
2022/10/10 05:45:07;;;;;;;;;15.67;13.00;;;;;14.02;63.62;100535.19;5045564;28;46459;-60
2022/10/10 05:47:32;;;;;;;;;17.33;16.33;;;;;13.99;63.99;100535.34;5017795;28;45482;-60
2022/10/10 05:49:57;;;;;;;;;16.00;15.33;;;;;13.96;63.61;100532.88;5020814;28;45872;-59
2022/10/10 05:52:22;;;;;;;;;15.67;14.00;;;;;13.92;63.78;100530.38;5038063;28;45505;-59
2022/10/10 05:54:48;;;;;;;;;14.33;14.33;;;;;13.90;64.06;100526.97;5038951;28;47321;-59
2022/10/10 05:57:13;;;;;;;;;17.33;17.00;;;;;13.88;63.81;100531.47;5031986;28;49110;-59
2022/10/10 05:59:39;;;;;;;;;13.33;13.33;;;;;13.87;64.11;100535.06;5039403;28;46035;-59
2022/10/10 06:02:04;;;;;;;;;17.33;15.33;;;;;13.85;64.00;100531.63;5037958;28;45703;-60
2022/10/10 06:04:29;;;;;;;;;15.33;14.00;;;;;13.84;64.55;100524.63;5045459;28;47265;-59
2022/10/10 06:06:54;;;;;;;;;13.33;13.33;;;;;13.84;64.67;100531.72;5037717;28;45360;-59
2022/10/10 06:09:20;;;;;;;;;17.67;17.67;;;;;13.81;64.50;100527.44;5038164;28;51885;-59
2022/10/10 06:11:45;;;;;;;;;12.67;12.67;;;;;13.80;64.45;100525.69;5044411;28;45587;-59
2022/10/10 06:14:10;;;;;;;;;12.67;10.33;;;;;13.84;64.94;100534.34;5037687;28;46069;-59
2022/10/10 06:16:38;;;;;;;;;17.33;17.33;;;;;13.82;64.49;100529.13;5043087;28;45474;-59
2022/10/10 06:19:03;;;;;;;;;14.00;12.67;;;;;13.88;64.77;100543.84;5038313;28;45389;-58
2022/10/10 06:21:28;;;;;;;;;19.00;16.33;;;;;13.90;64.70;100545.47;5041456;28;45475;-56
2022/10/10 06:23:54;;;;;;;;;19.67;19.67;;;;;13.93;64.63;100549.75;5048387;28;51510;-59
2022/10/10 06:26:19;;;;;;;;;16.33;15.00;;;;;13.92;64.56;100543.59;5052784;28;45506;-59
2022/10/10 06:28:45;;;;;;;;;15.33;15.33;;;;;13.93;64.55;100550.59;5052745;28;45613;-58
2022/10/10 06:31:11;;;;;;;;;15.67;15.67;;;;;13.93;64.36;100553.25;5035243;28;45423;-57
2022/10/10 06:33:38;;;;;;;;;15.33;13.67;;;;;13.97;64.56;100555.72;5037282;28;46301;-58
2022/10/10 06:36:06;;;;;;;;;11.67;11.67;;;;;13.97;64.54;100553.09;5036343;28;45462;-58
2022/10/10 06:38:34;;;;;;;;;15.33;15.33;;;;;13.96;64.25;100557.53;5037680;28;45550;-58
2022/10/10 06:41:01;;;;;;;;;16.00;14.67;;;;;13.97;64.10;100558.38;5037868;28;45435;-58
2022/10/10 06:43:27;;;;;;;;;16.33;15.00;;;;;14.00;64.43;100564.38;5037501;28;46027;-58
2022/10/10 06:45:52;;;;;;;;;20.33;16.67;;;;;14.01;64.40;100560.78;5037495;28;49507;-58
2022/10/10 06:48:17;;;;;;;;;15.33;15.33;;;;;14.03;64.86;100558.09;5019662;28;45487;-57
2022/10/10 06:50:54;;;;;;;;;17.00;17.00;;;;;14.02;64.40;100565.13;5036669;28;45415;-58
2022/10/10 06:53:19;;;;;;;;;17.67;16.00;;;;;14.03;64.27;100558.94;5029618;28;45548;-58
2022/10/10 06:55:46;;;;;;;;;17.00;17.00;;;;;14.05;64.39;100567.66;5037324;28;45476;-58
2022/10/10 06:58:11;;;;;;;;;17.33;16.33;;;;;14.06;64.47;100577.28;5037760;28;45412;-58
2022/10/10 07:00:36;;;;;;;;;17.33;16.33;;;;;14.07;64.29;100584.28;5036808;28;45443;-58
2022/10/10 07:03:02;;;;;;;;;18.00;17.00;;;;;14.06;64.24;100579.94;5037285;28;51536;-57
2022/10/10 07:05:27;;;;;;;;;17.00;17.00;;;;;14.14;64.47;100603.34;5037398;28;45445;-58
2022/10/10 07:07:52;;;;;;;;;20.00;17.33;;;;;14.17;64.16;100595.25;5037380;28;45353;-58
2022/10/10 07:10:18;;;;;;;;;16.67;15.67;;;;;14.22;65.08;100603.81;5037316;28;46407;-58
2022/10/10 07:12:43;;;;;;;;;20.33;20.00;;;;;14.24;64.74;100601.97;5037350;28;46174;-58
2022/10/10 07:15:08;;;;;;;;;25.00;22.67;;;;;14.29;64.86;100607.88;5036872;28;52230;-57
2022/10/10 07:17:34;;;;;;;;;18.33;17.33;;;;;14.33;63.16;100603.28;5036993;28;45400;-58
2022/10/10 07:19:59;;;;;;;;;20.00;20.00;;;;;14.34;63.75;100604.97;5037195;28;45603;-58
2022/10/10 07:22:24;;;;;;;;;22.67;19.00;;;;;14.41;64.46;100608.19;5047275;28;54593;-57
2022/10/10 07:24:50;;;;;;;;;14.33;14.00;;;;;14.43;64.49;100614.25;5057316;28;45494;-58
2022/10/10 07:27:15;;;;;;;;;19.67;17.00;;;;;14.44;64.03;100622.09;5057278;28;45458;-58
2022/10/10 07:29:41;;;;;;;;;15.00;15.00;;;;;14.41;64.37;100613.47;5057163;28;45629;-58
2022/10/10 07:32:07;;;;;;;;;21.00;18.67;;;;;14.46;65.08;100614.94;5056948;28;45625;-58
2022/10/10 07:34:34;;;;;;;;;19.00;15.67;;;;;14.51;63.98;100606.78;5055724;28;45447;-58
2022/10/10 07:36:59;;;;;;;;;17.33;14.33;;;;;14.53;64.67;100613.75;5057259;28;45481;-58
2022/10/10 07:39:25;;;;;;;;;16.33;16.33;;;;;14.54;64.89;100611.94;5038499;28;52230;-58
2022/10/10 07:41:50;;;;;;;;;18.00;16.67;;;;;14.58;65.24;100610.84;5057334;28;46006;-57
2022/10/10 07:44:17;;;;;;;;;20.33;18.00;;;;;14.61;64.71;100621.25;5056897;28;45384;-58
2022/10/10 07:46:42;;;;;;;;;18.33;18.00;;;;;14.63;65.60;100624.69;5057266;28;45522;-58
2022/10/10 07:49:08;;;;;;;;;12.67;12.67;;;;;14.65;64.77;100633.41;5056707;28;45585;-58
2022/10/10 07:51:33;;;;;;;;;15.33;15.33;;;;;14.68;65.42;100638.56;5056606;28;46455;-58
2022/10/10 07:53:59;;;;;;;;;18.00;16.00;;;;;14.70;64.52;100635.84;5056733;28;45498;-58
2022/10/10 07:56:24;;;;;;;;;14.00;14.00;;;;;14.73;65.18;100638.31;5056744;28;45387;-58
2022/10/10 07:58:50;;;;;;;;;15.67;15.67;;;;;14.76;64.83;100635.50;5056617;28;45580;-58
2022/10/10 08:01:16;;;;;;;;;18.33;15.00;;;;;14.78;65.46;100639.78;5056495;28;46566;-57
2022/10/10 08:03:42;;;;;;;;;16.00;16.00;;;;;14.83;64.36;100633.38;5056531;28;45494;-58
2022/10/10 08:06:11;;;;;;;;;15.33;14.33;;;;;14.87;64.66;100641.09;5055311;28;45534;-58
2022/10/10 08:08:37;;;;;;;;;15.67;15.33;;;;;14.90;64.82;100638.28;5056645;28;45468;-58
2022/10/10 08:11:07;;;;;;;;;12.67;12.67;;;;;14.93;64.61;100631.97;5055287;28;46374;-58
2022/10/10 08:13:34;;;;;;;;;16.00;15.00;;;;;14.94;63.73;100634.53;5056616;28;45489;-58
2022/10/10 08:16:00;;;;;;;;;14.00;13.00;;;;;14.95;64.93;100636.25;5056419;28;45390;-58
2022/10/10 08:18:26;;;;;;;;;15.00;14.33;;;;;14.98;64.46;100624.63;5056337;28;45391;-58
2022/10/10 08:21:05;;;;;;;;;16.33;16.00;;;;;15.02;65.49;100635.00;5055153;28;45599;-58
2022/10/10 08:23:31;;;;;;;;;18.67;17.00;;;;;15.08;64.76;100638.25;5055982;28;45387;-58
2022/10/10 08:25:58;;;;;;;;;15.67;14.67;;;;;15.15;65.28;100643.16;5056449;28;45493;-58
2022/10/10 08:28:24;;;;;;;;;18.00;17.67;;;;;15.20;64.58;100650.81;5056392;28;45431;-58
2022/10/10 08:30:50;;;;;;;;;17.00;15.00;;;;;15.24;65.35;100666.47;5055978;28;46484;-58
2022/10/10 08:33:15;;;;;;;;;16.33;14.33;;;;;15.25;64.52;100652.28;5056407;28;45426;-58
2022/10/10 08:35:40;;;;;;;;;17.33;17.33;;;;;15.32;64.92;100671.38;5055923;28;45674;-58
2022/10/10 08:38:07;;;;;;;;;20.33;17.67;;;;;15.31;65.31;100666.16;5056022;28;45383;-59
2022/10/10 08:40:40;;;;;;;;;13.67;13.67;;;;;15.33;65.33;100666.94;5056667;28;45479;-59
2022/10/10 08:43:08;;;;;;;;;22.67;22.67;;;;;15.31;64.91;100669.66;5055808;28;45375;-58
2022/10/10 08:45:37;;;;;;;;;35.00;31.00;;;;;15.36;65.32;100667.59;5055777;28;45399;-58
2022/10/10 08:48:15;;;;;;;;;20.00;17.33;;;;;15.35;65.68;100660.59;5037787;28;45582;-57
2022/10/10 08:50:50;;;;;;;;;34.33;29.67;;;;;15.43;65.34;100673.44;5055555;28;47090;-58
2022/10/10 08:53:31;;;;;;;;;22.33;19.33;;;;;15.45;64.93;100682.19;5055929;28;45443;-58
2022/10/10 08:55:57;;;;;;;;;14.33;14.33;;;;;15.53;65.46;100703.81;5055776;28;45432;-58
2022/10/10 08:58:36;;;;;;;;;16.33;16.00;;;;;15.52;64.80;100694.13;5055551;28;45557;-57
2022/10/10 09:01:10;;;;;;;;;18.33;18.33;;;;;15.55;65.74;100703.72;5037374;28;46325;-58
2022/10/10 09:03:44;;;;;;;;;17.00;15.33;;;;;15.58;64.63;100696.47;5055681;28;45403;-59
2022/10/10 09:06:12;;;;;;;;;14.33;14.33;;;;;15.65;65.78;100700.47;5055789;28;45411;-59
2022/10/10 09:08:40;;;;;;;;;17.33;15.33;;;;;15.69;64.76;100698.56;5055697;28;45309;-58
2022/10/10 09:11:22;;;;;;;;;17.33;16.00;;;;;15.74;65.53;100699.16;5055306;28;45915;-58
2022/10/10 09:14:02;;;;;;;;;15.67;15.33;;;;;15.78;64.87;100703.34;5055627;28;45496;-58
2022/10/10 09:16:40;;;;;;;;;17.33;17.33;;;;;15.77;65.46;100696.34;5055804;28;45458;-58
2022/10/10 09:19:05;;;;;;;;;13.33;13.33;;;;;15.78;65.50;100705.16;5055460;28;45485;-58
2022/10/10 09:21:35;;;;;;;;;19.00;15.67;;;;;15.79;66.12;100710.34;5055219;28;46280;-58
2022/10/10 09:24:21;;;;;;;;;19.00;15.00;;;;;15.82;65.48;100718.13;5055183;28;45422;-59
2022/10/10 09:26:54;;;;;;;;;15.67;12.67;;;;;15.87;65.57;100712.59;5055639;28;45431;-59
2022/10/10 09:29:25;;;;;;;;;14.33;12.33;;;;;15.90;65.90;100702.69;5055160;28;45433;-58
2022/10/10 09:32:00;;;;;;;;;13.00;13.00;;;;;15.93;65.83;100709.59;5054788;28;45893;-58
2022/10/10 09:34:42;;;;;;;;;16.67;13.00;;;;;15.96;65.66;100712.09;5054960;28;45395;-58
2022/10/10 09:37:16;;;;;;;;;18.67;16.00;;;;;16.01;65.74;100728.63;5036942;28;45412;-58
2022/10/10 09:39:53;;;;;;;;;15.00;13.00;;;;;16.00;65.15;100731.34;5055046;28;45450;-58
2022/10/10 09:42:30;;;;;;;;;16.00;14.67;;;;;16.04;66.42;100747.00;5055398;28;46382;-58
2022/10/10 09:44:55;;;;;;;;;12.67;11.67;;;;;16.03;66.60;100747.09;5054560;28;45608;-58
2022/10/10 09:47:21;;;;;;;;;14.00;12.33;;;;;16.04;66.20;100744.34;5055095;28;45469;-58
2022/10/10 09:49:47;;;;;;;;;15.33;15.33;;;;;16.07;65.81;100753.94;5054997;28;45450;-58
2022/10/10 09:52:24;;;;;;;;;16.00;13.67;;;;;16.08;65.94;100748.53;5054762;28;45413;-58
2022/10/10 09:54:56;;;;;;;;;10.67;10.67;;;;;16.12;65.68;100760.69;5055042;28;45483;-58
2022/10/10 09:57:25;;;;;;;;;17.67;14.33;;;;;16.18;67.10;100764.81;5055103;28;45474;-58
2022/10/10 09:59:51;;;;;;;;;16.00;15.00;;;;;16.18;66.90;100772.78;5055268;28;45427;-58
2022/10/10 10:02:19;;;;;;;;;15.00;14.33;;;;;16.21;66.75;100772.59;5054721;28;45422;-58
2022/10/10 10:04:47;;;;;;;;;11.67;11.67;;;;;16.23;66.39;100760.09;5054939;28;45383;-58
2022/10/10 10:07:20;;;;;;;;;17.00;14.00;;;;;16.23;66.50;100761.91;5054797;28;45400;-58
2022/10/10 10:09:51;;;;;;;;;13.00;12.00;;;;;16.22;66.65;100768.13;5055035;28;45399;-57
2022/10/10 10:12:22;;;;;;;;;12.00;12.00;;;;;16.25;66.90;100770.63;5054487;28;46406;-58
2022/10/10 10:14:50;;;;;;;;;13.00;13.00;;;;;16.27;66.71;100758.97;5054664;28;45336;-57
2022/10/10 10:17:20;;;;;;;;;15.67;15.67;;;;;16.26;66.78;100751.13;5054796;28;45549;-58
2022/10/10 10:19:46;;;;;;;;;12.00;12.00;;;;;16.32;65.96;100761.38;5036549;28;45483;-59
2022/10/10 10:22:31;;;;;;;;;13.67;13.00;;;;;16.35;66.64;100763.84;5053395;28;46054;-59
2022/10/10 10:24:58;;;;;;;;;15.67;15.67;;;;;16.40;65.32;100774.22;5054683;28;45514;-58
2022/10/10 10:27:26;;;;;;;;;13.33;13.33;;;;;16.41;65.62;100776.75;5054559;28;45454;-58
2022/10/10 10:29:54;;;;;;;;;16.00;15.33;;;;;16.42;66.34;100773.19;5054374;28;45625;-58
2022/10/10 10:33:00;;;;;;;;;19.00;16.00;;;;;16.48;65.90;100778.13;5054028;28;46477;-58
2022/10/10 10:35:55;;;;;;;;;14.00;13.33;;;;;16.54;66.11;100788.41;5056591;28;45325;-59
2022/10/10 10:38:30;;;;;;;;;13.67;12.33;;;;;16.60;65.37;100789.00;5058000;28;45359;-58
2022/10/10 10:41:26;;;;;;;;;18.67;15.00;;;;;16.59;66.07;100796.09;5058513;28;45539;-59
2022/10/10 10:44:13;;;;;;;;;17.00;16.00;;;;;16.62;66.36;100793.28;5057601;28;46483;-58
2022/10/10 10:47:03;;;;;;;;;16.00;13.00;;;;;16.63;66.21;100794.13;5038631;28;45480;-58
2022/10/10 10:49:53;;;;;;;;;15.33;15.33;;;;;16.68;66.06;100794.72;5057579;28;45438;-59
2022/10/10 10:52:31;;;;;;;;;18.00;15.67;;;;;16.74;65.93;100807.66;5057478;28;45629;-59
2022/10/10 10:55:07;;;;;;;;;14.00;14.00;;;;;16.78;66.02;100814.53;5057152;28;46242;-58
2022/10/10 10:57:46;;;;;;;;;16.67;15.67;;;;;16.84;65.85;100813.31;5057409;28;45519;-58
2022/10/10 11:00:19;;;;;;;;;18.00;15.67;;;;;16.89;65.89;100822.72;5056170;28;45411;-58
2022/10/10 11:03:03;;;;;;;;;18.00;15.00;;;;;16.93;65.34;100820.75;5057393;28;45471;-58
2022/10/10 11:05:49;;;;;;;;;16.33;15.67;;;;;17.00;65.27;100833.56;5040447;28;46435;-58
2022/10/10 11:08:17;;;;;;;;;17.00;17.00;;;;;17.04;65.81;100828.09;5057330;28;45440;-58
2022/10/10 11:10:48;;;;;;;;;17.67;14.33;;;;;17.05;65.68;100832.47;5039202;28;45449;-59
2022/10/10 11:13:25;;;;;;;;;16.00;16.00;;;;;17.08;65.85;100840.25;5057622;28;45528;-58
2022/10/10 11:15:58;;;;;;;;;17.67;17.33;;;;;17.13;65.52;100838.19;5056938;28;45403;-59
2022/10/10 11:18:39;;;;;;;;;16.67;16.33;;;;;17.17;65.30;100837.06;5056827;28;45603;-60